sensor_id;sensor_type;location;lat;lon;timestamp;pressure;altitude;pressure_sealevel;temperature;humidity
11440;BME280;5776;51.814;4.510;2023-05-01T00:00:54;101852.00;;;12.86;95.20
11440;BME280;5776;51.814;4.510;2023-05-01T00:03:20;101848.47;;;12.86;95.02
11440;BME280;5776;51.814;4.510;2023-05-01T00:05:46;101850.13;;;12.87;95.19
11440;BME280;5776;51.814;4.510;2023-05-01T00:08:12;101845.75;;;12.86;94.93
11440;BME280;5776;51.814;4.510;2023-05-01T00:10:38;101845.75;;;12.86;94.49
11440;BME280;5776;51.814;4.510;2023-05-01T00:13:04;101844.94;;;12.85;93.97
11440;BME280;5776;51.814;4.510;2023-05-01T00:15:31;101836.75;;;12.85;94.26
11440;BME280;5776;51.814;4.510;2023-05-01T00:17:58;101835.16;;;12.84;94.47
11440;BME280;5776;51.814;4.510;2023-05-01T00:20:29;101831.59;;;12.84;94.94
11440;BME280;5776;51.814;4.510;2023-05-01T00:22:56;101833.78;;;12.82;95.02
11440;BME280;5776;51.814;4.510;2023-05-01T00:25:22;101828.34;;;12.82;95.20
11440;BME280;5776;51.814;4.510;2023-05-01T00:27:48;101826.69;;;12.81;95.16
11440;BME280;5776;51.814;4.510;2023-05-01T00:30:14;101822.34;;;12.80;95.39
11440;BME280;5776;51.814;4.510;2023-05-01T00:32:40;101824.25;;;12.79;94.96
11440;BME280;5776;51.814;4.510;2023-05-01T00:35:06;101817.97;;;12.79;95.38
11440;BME280;5776;51.814;4.510;2023-05-01T00:37:32;101814.16;;;12.80;95.26
11440;BME280;5776;51.814;4.510;2023-05-01T00:39:58;101812.81;;;12.77;94.73
11440;BME280;5776;51.814;4.510;2023-05-01T00:42:24;101810.09;;;12.77;94.69
11440;BME280;5776;51.814;4.510;2023-05-01T00:44:50;101804.91;;;12.75;95.37
11440;BME280;5776;51.814;4.510;2023-05-01T00:47:16;101806.00;;;12.74;95.51
11440;BME280;5776;51.814;4.510;2023-05-01T00:49:43;101797.84;;;12.74;94.76
11440;BME280;5776;51.814;4.510;2023-05-01T00:52:12;101790.75;;;12.73;95.21
11440;BME280;5776;51.814;4.510;2023-05-01T00:54:38;101792.38;;;12.74;95.26
11440;BME280;5776;51.814;4.510;2023-05-01T00:57:05;101788.00;;;12.73;95.52
11440;BME280;5776;51.814;4.510;2023-05-01T00:59:32;101786.38;;;12.72;95.26
11440;BME280;5776;51.814;4.510;2023-05-01T01:01:58;101780.94;;;12.72;95.50
11440;BME280;5776;51.814;4.510;2023-05-01T01:04:24;101774.69;;;12.72;95.69
11440;BME280;5776;51.814;4.510;2023-05-01T01:07:48;101773.03;;;12.71;96.03
11440;BME280;5776;51.814;4.510;2023-05-01T01:10:36;101765.97;;;12.70;96.67
11440;BME280;5776;51.814;4.510;2023-05-01T01:13:28;101768.97;;;12.68;96.54
11440;BME280;5776;51.814;4.510;2023-05-01T01:16:08;101757.50;;;12.66;96.47
11440;BME280;5776;51.814;4.510;2023-05-01T01:18:40;101751.78;;;12.68;96.46
11440;BME280;5776;51.814;4.510;2023-05-01T01:24:11;101748.28;;;12.62;96.53
11440;BME280;5776;51.814;4.510;2023-05-01T01:32:28;101736.28;;;12.63;96.38
11440;BME280;5776;51.814;4.510;2023-05-01T01:35:31;101740.38;;;12.61;96.63
11440;BME280;5776;51.814;4.510;2023-05-01T01:40:58;101727.06;;;12.59;96.78
11440;BME280;5776;51.814;4.510;2023-05-01T01:43:30;101732.19;;;12.61;96.26
11440;BME280;5776;51.814;4.510;2023-05-01T01:45:59;101723.22;;;12.60;96.77
11440;BME280;5776;51.814;4.510;2023-05-01T01:48:30;101719.94;;;12.58;97.09
11440;BME280;5776;51.814;4.510;2023-05-01T01:50:59;101721.59;;;12.59;96.37
11440;BME280;5776;51.814;4.510;2023-05-01T01:53:28;101719.94;;;12.58;96.62
11440;BME280;5776;51.814;4.510;2023-05-01T01:55:57;101715.31;;;12.59;96.59
11440;BME280;5776;51.814;4.510;2023-05-01T01:58:25;101711.25;;;12.56;97.72
11440;BME280;5776;51.814;4.510;2023-05-01T02:00:54;101712.88;;;12.57;96.44
11440;BME280;5776;51.814;4.510;2023-05-01T02:03:22;101706.91;;;12.55;96.62
11440;BME280;5776;51.814;4.510;2023-05-01T02:05:49;101706.09;;;12.54;97.29
11440;BME280;5776;51.814;4.510;2023-05-01T02:08:17;101703.63;;;12.53;96.72
11440;BME280;5776;51.814;4.510;2023-05-01T02:10:46;101695.44;;;12.53;96.99
11440;BME280;5776;51.814;4.510;2023-05-01T02:13:13;101699.28;;;12.52;97.05
11440;BME280;5776;51.814;4.510;2023-05-01T02:15:41;101687.28;;;12.53;97.24
11440;BME280;5776;51.814;4.510;2023-05-01T02:18:08;101696.03;;;12.50;97.36
11440;BME280;5776;51.814;4.510;2023-05-01T02:20:36;101688.94;;;12.49;97.31
11440;BME280;5776;51.814;4.510;2023-05-01T02:23:03;101685.69;;;12.47;97.59
11440;BME280;5776;51.814;4.510;2023-05-01T02:25:33;101682.97;;;12.47;97.29
11440;BME280;5776;51.814;4.510;2023-05-01T02:28:02;101677.50;;;12.47;97.90
11440;BME280;5776;51.814;4.510;2023-05-01T02:30:30;101686.50;;;12.47;97.57
11440;BME280;5776;51.814;4.510;2023-05-01T02:32:57;101681.06;;;12.47;97.90
11440;BME280;5776;51.814;4.510;2023-05-01T02:35:23;101677.22;;;12.48;98.14
11440;BME280;5776;51.814;4.510;2023-05-01T02:37:49;101671.53;;;12.45;98.05
11440;BME280;5776;51.814;4.510;2023-05-01T02:40:16;101675.88;;;12.46;97.81
11440;BME280;5776;51.814;4.510;2023-05-01T02:42:43;101671.00;;;12.43;98.29
11440;BME280;5776;51.814;4.510;2023-05-01T02:45:20;101665.81;;;12.41;98.60
11440;BME280;5776;51.814;4.510;2023-05-01T02:47:52;101677.28;;;12.38;98.41
11440;BME280;5776;51.814;4.510;2023-05-01T02:50:20;101661.72;;;12.39;98.05
11440;BME280;5776;51.814;4.510;2023-05-01T02:52:47;101659.84;;;12.39;98.24
11440;BME280;5776;51.814;4.510;2023-05-01T02:55:13;101657.38;;;12.38;98.33
11440;BME280;5776;51.814;4.510;2023-05-01T02:57:40;101656.59;;;12.37;98.29
11440;BME280;5776;51.814;4.510;2023-05-01T03:00:06;101644.34;;;12.35;98.38
11440;BME280;5776;51.814;4.510;2023-05-01T03:02:34;101652.50;;;12.35;98.34
11440;BME280;5776;51.814;4.510;2023-05-01T03:04:59;101642.69;;;12.33;97.88
11440;BME280;5776;51.814;4.510;2023-05-01T03:07:25;101638.88;;;12.35;98.20
11440;BME280;5776;51.814;4.510;2023-05-01T03:10:01;101637.25;;;12.33;98.24
11440;BME280;5776;51.814;4.510;2023-05-01T03:12:29;101636.44;;;12.33;98.20
11440;BME280;5776;51.814;4.510;2023-05-01T03:14:55;101627.19;;;12.34;97.89
11440;BME280;5776;51.814;4.510;2023-05-01T03:17:21;101634.53;;;12.33;97.44
11440;BME280;5776;51.814;4.510;2023-05-01T03:19:48;101635.91;;;12.31;97.69
11440;BME280;5776;51.814;4.510;2023-05-01T03:22:14;101626.91;;;12.30;97.78
11440;BME280;5776;51.814;4.510;2023-05-01T03:24:41;101625.00;;;12.31;97.82
11440;BME280;5776;51.814;4.510;2023-05-01T03:27:07;101621.47;;;12.30;97.80
11440;BME280;5776;51.814;4.510;2023-05-01T03:29:33;101626.91;;;12.30;97.71
11440;BME280;5776;51.814;4.510;2023-05-01T03:31:59;101620.94;;;12.28;97.94
11440;BME280;5776;51.814;4.510;2023-05-01T03:34:25;101613.31;;;12.25;97.74
11440;BME280;5776;51.814;4.510;2023-05-01T03:36:52;101607.34;;;12.23;98.47
11440;BME280;5776;51.814;4.510;2023-05-01T03:39:19;101610.91;;;12.24;97.93
11440;BME280;5776;51.814;4.510;2023-05-01T03:41:45;101613.88;;;12.22;98.19
11440;BME280;5776;51.814;4.510;2023-05-01T03:44:10;101608.19;;;12.24;98.49
11440;BME280;5776;51.814;4.510;2023-05-01T03:46:36;101600.28;;;12.22;98.58
11440;BME280;5776;51.814;4.510;2023-05-01T03:49:02;101607.09;;;12.20;98.60
11440;BME280;5776;51.814;4.510;2023-05-01T03:51:28;101604.63;;;12.18;98.45
11440;BME280;5776;51.814;4.510;2023-05-01T03:53:54;101606.56;;;12.18;98.80
11440;BME280;5776;51.814;4.510;2023-05-01T03:56:24;101601.91;;;12.18;98.92
11440;BME280;5776;51.814;4.510;2023-05-01T03:58:51;101602.72;;;12.19;98.73
11440;BME280;5776;51.814;4.510;2023-05-01T04:01:17;101598.13;;;12.19;98.42
11440;BME280;5776;51.814;4.510;2023-05-01T04:03:43;101601.91;;;12.18;98.49
11440;BME280;5776;51.814;4.510;2023-05-01T04:06:11;101604.38;;;12.20;98.72
11440;BME280;5776;51.814;4.510;2023-05-01T04:08:37;101605.75;;;12.17;98.91
11440;BME280;5776;51.814;4.510;2023-05-01T04:11:03;101596.22;;;12.15;98.84
11440;BME280;5776;51.814;4.510;2023-05-01T04:13:29;101591.59;;;12.15;98.56
11440;BME280;5776;51.814;4.510;2023-05-01T04:15:55;101592.41;;;12.16;98.61
11440;BME280;5776;51.814;4.510;2023-05-01T04:18:24;101599.75;;;12.15;98.62
11440;BME280;5776;51.814;4.510;2023-05-01T04:20:50;101596.47;;;12.18;98.13
11440;BME280;5776;51.814;4.510;2023-05-01T04:23:16;101588.31;;;12.13;98.33
11440;BME280;5776;51.814;4.510;2023-05-01T04:25:43;101589.44;;;12.12;98.96
11440;BME280;5776;51.814;4.510;2023-05-01T04:28:12;101585.63;;;12.08;99.02
11440;BME280;5776;51.814;4.510;2023-05-01T04:30:38;101587.56;;;12.07;98.69
11440;BME280;5776;51.814;4.510;2023-05-01T04:33:04;101586.75;;;12.07;98.77
11440;BME280;5776;51.814;4.510;2023-05-01T04:35:41;101581.56;;;12.05;99.54
11440;BME280;5776;51.814;4.510;2023-05-01T04:38:08;101579.13;;;12.04;99.07
11440;BME280;5776;51.814;4.510;2023-05-01T04:40:34;101582.94;;;12.03;99.39
11440;BME280;5776;51.814;4.510;2023-05-01T04:43:00;101577.50;;;12.03;99.32
11440;BME280;5776;51.814;4.510;2023-05-01T04:45:26;101577.50;;;12.03;99.43
11440;BME280;5776;51.814;4.510;2023-05-01T04:47:52;101581.31;;;12.02;99.75
11440;BME280;5776;51.814;4.510;2023-05-01T04:50:18;101588.38;;;12.03;99.37
11440;BME280;5776;51.814;4.510;2023-05-01T04:52:44;101575.88;;;12.02;99.30
11440;BME280;5776;51.814;4.510;2023-05-01T04:55:10;101581.31;;;12.02;98.70
11440;BME280;5776;51.814;4.510;2023-05-01T04:57:36;101581.31;;;12.02;99.23
11440;BME280;5776;51.814;4.510;2023-05-01T05:00:03;101566.34;;;11.99;99.24
11440;BME280;5776;51.814;4.510;2023-05-01T05:02:29;101578.06;;;12.00;99.77
11440;BME280;5776;51.814;4.510;2023-05-01T05:04:55;101582.41;;;12.01;99.80
11440;BME280;5776;51.814;4.510;2023-05-01T05:07:22;101579.66;;;12.01;99.75
11440;BME280;5776;51.814;4.510;2023-05-01T05:09:48;101582.41;;;12.01;99.42
11440;BME280;5776;51.814;4.510;2023-05-01T05:12:14;101583.50;;;12.00;99.96
11440;BME280;5776;51.814;4.510;2023-05-01T05:14:40;101576.94;;;12.01;99.35
11440;BME280;5776;51.814;4.510;2023-05-01T05:17:06;101578.06;;;12.00;99.45
11440;BME280;5776;51.814;4.510;2023-05-01T05:19:32;101581.88;;;11.99;100.00
11440;BME280;5776;51.814;4.510;2023-05-01T05:21:58;101581.03;;;11.98;100.00
11440;BME280;5776;51.814;4.510;2023-05-01T05:24:26;101578.31;;;11.98;99.90
11440;BME280;5776;51.814;4.510;2023-05-01T05:26:52;101583.25;;;12.01;100.00
11440;BME280;5776;51.814;4.510;2023-05-01T05:29:19;101577.25;;;11.99;100.00
11440;BME280;5776;51.814;4.510;2023-05-01T05:31:45;101579.97;;;11.99;100.00
11440;BME280;5776;51.814;4.510;2023-05-01T05:34:12;101581.34;;;11.97;100.00
11440;BME280;5776;51.814;4.510;2023-05-01T05:36:38;101577.63;;;11.62;100.00
11440;BME280;5776;51.814;4.510;2023-05-01T05:39:04;101576.56;;;11.48;100.00
11440;BME280;5776;51.814;4.510;2023-05-01T05:41:30;101583.66;;;11.49;100.00
11440;BME280;5776;51.814;4.510;2023-05-01T05:43:55;101574.97;;;11.46;100.00
11440;BME280;5776;51.814;4.510;2023-05-01T05:46:21;101580.41;;;11.46;100.00
11440;BME280;5776;51.814;4.510;2023-05-01T05:48:47;101582.00;;;11.48;100.00
11440;BME280;5776;51.814;4.510;2023-05-01T05:51:13;101583.66;;;11.49;100.00
11440;BME280;5776;51.814;4.510;2023-05-01T05:53:39;101579.56;;;11.46;100.00
11440;BME280;5776;51.814;4.510;2023-05-01T05:56:06;101582.00;;;11.48;100.00
11440;BME280;5776;51.814;4.510;2023-05-01T05:58:31;101576.84;;;11.46;100.00
11440;BME280;5776;51.814;4.510;2023-05-01T06:00:57;101581.47;;;11.45;100.00
11440;BME280;5776;51.814;4.510;2023-05-01T06:03:23;101582.00;;;11.48;100.00
11440;BME280;5776;51.814;4.510;2023-05-01T06:05:49;101576.31;;;11.49;100.00
11440;BME280;5776;51.814;4.510;2023-05-01T06:08:15;101574.97;;;11.46;100.00
11440;BME280;5776;51.814;4.510;2023-05-01T06:10:42;101582.81;;;11.48;100.00
11440;BME280;5776;51.814;4.510;2023-05-01T06:13:09;101577.09;;;11.60;100.00
11440;BME280;5776;51.814;4.510;2023-05-01T06:15:38;101587.94;;;11.65;100.00
11440;BME280;5776;51.814;4.510;2023-05-01T06:18:05;101592.59;;;11.59;100.00
11440;BME280;5776;51.814;4.510;2023-05-01T06:20:31;101580.38;;;11.57;100.00
11440;BME280;5776;51.814;4.510;2023-05-01T06:22:57;101582.28;;;11.56;100.00
11440;BME280;5776;51.814;4.510;2023-05-01T06:25:23;101582.78;;;11.58;100.00
11440;BME280;5776;51.814;4.510;2023-05-01T06:27:50;101583.63;;;11.59;100.00
11440;BME280;5776;51.814;4.510;2023-05-01T06:30:16;101579.81;;;11.60;100.00
11440;BME280;5776;51.814;4.510;2023-05-01T06:32:45;101569.72;;;11.60;100.00
11440;BME280;5776;51.814;4.510;2023-05-01T06:35:12;101571.38;;;11.66;100.00
11440;BME280;5776;51.814;4.510;2023-05-01T06:37:38;101575.69;;;11.73;100.00
11440;BME280;5776;51.814;4.510;2023-05-01T06:40:05;101576.47;;;11.78;100.00
11440;BME280;5776;51.814;4.510;2023-05-01T06:42:32;101571.59;;;11.75;100.00
11440;BME280;5776;51.814;4.510;2023-05-01T06:44:58;101576.78;;;11.72;100.00
11440;BME280;5776;51.814;4.510;2023-05-01T06:47:24;101579.50;;;11.77;100.00
11440;BME280;5776;51.814;4.510;2023-05-01T06:49:50;101576.75;;;11.77;100.00
11440;BME280;5776;51.814;4.510;2023-05-01T06:52:16;101578.13;;;11.79;100.00
11440;BME280;5776;51.814;4.510;2023-05-01T06:54:41;101586.81;;;11.81;100.00
11440;BME280;5776;51.814;4.510;2023-05-01T06:57:07;101584.94;;;11.77;100.00
11440;BME280;5776;51.814;4.510;2023-05-01T06:59:33;101583.56;;;11.79;100.00
11440;BME280;5776;51.814;4.510;2023-05-01T07:01:59;101591.19;;;11.77;100.00
11440;BME280;5776;51.814;4.510;2023-05-01T07:04:25;101585.72;;;11.82;100.00
11440;BME280;5776;51.814;4.510;2023-05-01T07:06:51;101588.44;;;11.82;100.00
11440;BME280;5776;51.814;4.510;2023-05-01T07:09:17;101581.66;;;11.80;100.00
11440;BME280;5776;51.814;4.510;2023-05-01T07:11:43;101588.19;;;11.79;99.13
11440;BME280;5776;51.814;4.510;2023-05-01T07:14:09;101586.84;;;11.76;99.48
11440;BME280;5776;51.814;4.510;2023-05-01T07:16:35;101592.25;;;11.81;100.00
11440;BME280;5776;51.814;4.510;2023-05-01T07:19:01;101589.78;;;11.85;100.00
11440;BME280;5776;51.814;4.510;2023-05-01T07:21:27;101592.50;;;11.85;100.00
11440;BME280;5776;51.814;4.510;2023-05-01T07:23:53;101585.72;;;11.82;100.00
11440;BME280;5776;51.814;4.510;2023-05-01T07:26:19;101586.25;;;11.84;100.00
11440;BME280;5776;51.814;4.510;2023-05-01T07:28:45;101579.72;;;11.91;100.00
11440;BME280;5776;51.814;4.510;2023-05-01T07:31:11;101576.97;;;11.96;100.00
11440;BME280;5776;51.814;4.510;2023-05-01T07:33:36;101579.44;;;11.97;100.00
11440;BME280;5776;51.814;4.510;2023-05-01T07:36:03;101572.63;;;12.00;100.00
11440;BME280;5776;51.814;4.510;2023-05-01T07:38:29;101583.25;;;12.01;100.00
11440;BME280;5776;51.814;4.510;2023-05-01T07:40:55;101586.75;;;12.07;100.00
11440;BME280;5776;51.814;4.510;2023-05-01T07:43:22;101581.31;;;12.02;100.00
11440;BME280;5776;51.814;4.510;2023-05-01T07:45:58;101588.13;;;12.04;100.00
11440;BME280;5776;51.814;4.510;2023-05-01T07:48:26;101582.91;;;12.08;100.00
11440;BME280;5776;51.814;4.510;2023-05-01T07:50:53;101580.19;;;12.08;100.00
11440;BME280;5776;51.814;4.510;2023-05-01T07:53:19;101576.38;;;12.09;100.00
11440;BME280;5776;51.814;4.510;2023-05-01T07:55:47;101580.72;;;12.10;100.00
11440;BME280;5776;51.814;4.510;2023-05-01T07:58:13;101577.19;;;12.09;100.00
11440;BME280;5776;51.814;4.510;2023-05-01T08:00:39;101582.34;;;12.11;100.00
11440;BME280;5776;51.814;4.510;2023-05-01T08:03:05;101582.34;;;12.11;100.00
11440;BME280;5776;51.814;4.510;2023-05-01T08:05:31;101594.59;;;12.14;100.00
11440;BME280;5776;51.814;4.510;2023-05-01T08:07:57;101589.13;;;12.14;100.00
11440;BME280;5776;51.814;4.510;2023-05-01T08:10:23;101588.31;;;12.13;100.00
11440;BME280;5776;51.814;4.510;2023-05-01T08:12:48;101596.50;;;12.13;100.00
11440;BME280;5776;51.814;4.510;2023-05-01T08:15:14;101601.94;;;12.13;100.00
11440;BME280;5776;51.814;4.510;2023-05-01T08:17:41;101599.25;;;12.08;100.00
11440;BME280;5776;51.814;4.510;2023-05-01T08:20:07;101599.25;;;12.08;100.00
11440;BME280;5776;51.814;4.510;2023-05-01T08:22:33;101592.72;;;12.09;100.00
11440;BME280;5776;51.814;4.510;2023-05-01T08:24:59;101590.81;;;12.09;100.00
11440;BME280;5776;51.814;4.510;2023-05-01T08:27:24;101598.69;;;12.11;100.00
11440;BME280;5776;51.814;4.510;2023-05-01T08:29:51;101596.78;;;12.17;100.00
11440;BME280;5776;51.814;4.510;2023-05-01T08:32:17;101608.16;;;12.19;100.00
11440;BME280;5776;51.814;4.510;2023-05-01T08:34:43;101605.72;;;12.22;100.00
11440;BME280;5776;51.814;4.510;2023-05-01T08:37:09;101595.59;;;12.28;100.00
11440;BME280;5776;51.814;4.510;2023-05-01T08:39:35;101601.19;;;12.52;100.00
11440;BME280;5776;51.814;4.510;2023-05-01T08:42:01;101604.38;;;12.64;100.00
11440;BME280;5776;51.814;4.510;2023-05-01T08:44:29;101604.69;;;12.58;100.00
11440;BME280;5776;51.814;4.510;2023-05-01T08:47:14;101609.06;;;12.53;100.00
11440;BME280;5776;51.814;4.510;2023-05-01T08:49:42;101608.25;;;12.53;100.00
11440;BME280;5776;51.814;4.510;2023-05-01T08:52:12;101609.38;;;12.52;100.00
11440;BME280;5776;51.814;4.510;2023-05-01T08:54:41;101605.00;;;12.51;100.00
11440;BME280;5776;51.814;4.510;2023-05-01T08:57:08;101613.19;;;12.51;100.00
11440;BME280;5776;51.814;4.510;2023-05-01T08:59:35;101608.84;;;12.50;100.00
11440;BME280;5776;51.814;4.510;2023-05-01T09:02:03;101612.66;;;12.49;100.00
11440;BME280;5776;51.814;4.510;2023-05-01T09:04:39;101618.63;;;12.51;100.00
11440;BME280;5776;51.814;4.510;2023-05-01T09:07:07;101620.53;;;12.50;100.00
11440;BME280;5776;51.814;4.510;2023-05-01T09:09:34;101618.34;;;12.52;100.00
11440;BME280;5776;51.814;4.510;2023-05-01T09:12:13;101621.88;;;12.53;100.00
11440;BME280;5776;51.814;4.510;2023-05-01T09:14:42;101623.22;;;12.56;100.00
11440;BME280;5776;51.814;4.510;2023-05-01T09:17:08;101619.44;;;12.57;100.00
11440;BME280;5776;51.814;4.510;2023-05-01T09:19:34;101619.13;;;12.58;100.00
11440;BME280;5776;51.814;4.510;2023-05-01T09:22:00;101614.78;;;12.57;100.00
11440;BME280;5776;51.814;4.510;2023-05-01T09:24:26;101630.84;;;12.59;100.00
11440;BME280;5776;51.814;4.510;2023-05-01T09:26:52;101631.38;;;12.61;100.00
11440;BME280;5776;51.814;4.510;2023-05-01T09:29:38;101621.81;;;12.63;100.00
11440;BME280;5776;51.814;4.510;2023-05-01T09:32:21;101613.38;;;12.65;100.00
11440;BME280;5776;51.814;4.510;2023-05-01T09:34:50;101618.25;;;12.68;100.00
11440;BME280;5776;51.814;4.510;2023-05-01T09:37:30;101620.16;;;12.67;100.00
11440;BME280;5776;51.814;4.510;2023-05-01T09:40:07;101612.81;;;12.68;100.00
11440;BME280;5776;51.814;4.510;2023-05-01T09:42:38;101608.16;;;12.68;100.00
11440;BME280;5776;51.814;4.510;2023-05-01T09:45:12;101616.88;;;12.70;100.00
11440;BME280;5776;51.814;4.510;2023-05-01T09:47:42;101618.78;;;12.70;100.00
11440;BME280;5776;51.814;4.510;2023-05-01T09:50:27;101617.13;;;12.69;100.00
11440;BME280;5776;51.814;4.510;2023-05-01T09:52:54;101614.72;;;12.67;100.00
11440;BME280;5776;51.814;4.510;2023-05-01T09:55:20;101623.69;;;12.68;100.00
11440;BME280;5776;51.814;4.510;2023-05-01T09:57:48;101627.81;;;12.65;100.00
11440;BME280;5776;51.814;4.510;2023-05-01T10:00:15;101631.34;;;12.66;100.00
11440;BME280;5776;51.814;4.510;2023-05-01T10:02:45;101636.25;;;12.64;100.00
11440;BME280;5776;51.814;4.510;2023-05-01T10:05:12;101644.72;;;12.62;100.00
11440;BME280;5776;51.814;4.510;2023-05-01T10:07:40;101640.88;;;12.68;100.00
11440;BME280;5776;51.814;4.510;2023-05-01T10:10:21;101661.59;;;12.69;100.00
11440;BME280;5776;51.814;4.510;2023-05-01T10:12:47;101659.13;;;12.68;100.00
11440;BME280;5776;51.814;4.510;2023-05-01T10:15:14;101665.41;;;12.63;100.00
11440;BME280;5776;51.814;4.510;2023-05-01T10:17:41;101662.47;;;12.60;100.00
11440;BME280;5776;51.814;4.510;2023-05-01T10:20:11;101648.59;;;12.51;100.00
11440;BME280;5776;51.814;4.510;2023-05-01T10:22:38;101654.34;;;12.49;100.00
11440;BME280;5776;51.814;4.510;2023-05-01T10:25:08;101658.97;;;12.49;100.00
11440;BME280;5776;51.814;4.510;2023-05-01T10:27:39;101651.91;;;12.43;100.00
11440;BME280;5776;51.814;4.510;2023-05-01T10:30:06;101646.75;;;12.41;100.00
11440;BME280;5776;51.814;4.510;2023-05-01T10:32:34;101641.84;;;12.38;100.00
11440;BME280;5776;51.814;4.510;2023-05-01T10:35:04;101640.50;;;12.36;100.00
11440;BME280;5776;51.814;4.510;2023-05-01T10:37:36;101657.97;;;12.29;100.00
11440;BME280;5776;51.814;4.510;2023-05-01T10:45:45;101664.81;;;12.27;100.00
11440;BME280;5776;51.814;4.510;2023-05-01T10:48:14;101660.16;;;12.27;100.00
11440;BME280;5776;51.814;4.510;2023-05-01T10:51:11;101668.94;;;12.19;100.00
11440;BME280;5776;51.814;4.510;2023-05-01T10:53:41;101668.34;;;12.27;100.00
11440;BME280;5776;51.814;4.510;2023-05-01T11:01:38;101675.09;;;12.40;100.00
11440;BME280;5776;51.814;4.510;2023-05-01T11:06:33;101669.97;;;12.23;100.00
11440;BME280;5776;51.814;4.510;2023-05-01T11:09:00;101665.66;;;12.17;100.00
11440;BME280;5776;51.814;4.510;2023-05-01T11:14:03;101665.09;;;12.20;100.00
11440;BME280;5776;51.814;4.510;2023-05-01T11:19:05;101667.75;;;12.36;100.00
11440;BME280;5776;51.814;4.510;2023-05-01T11:21:33;101665.53;;;12.43;100.00
11440;BME280;5776;51.814;4.510;2023-05-01T11:24:00;101663.31;;;12.50;100.00
11440;BME280;5776;51.814;4.510;2023-05-01T11:26:29;101666.56;;;12.57;100.00
11440;BME280;5776;51.814;4.510;2023-05-01T11:28:57;101661.34;;;12.61;100.00
11440;BME280;5776;51.814;4.510;2023-05-01T11:31:25;101658.91;;;12.64;100.00
11440;BME280;5776;51.814;4.510;2023-05-01T11:33:54;101658.84;;;12.69;100.00
11440;BME280;5776;51.814;4.510;2023-05-01T11:36:20;101670.28;;;12.71;100.00
11440;BME280;5776;51.814;4.510;2023-05-01T11:41:22;101658.56;;;12.71;100.00
11440;BME280;5776;51.814;4.510;2023-05-01T11:43:58;101652.84;;;12.72;100.00
11440;BME280;5776;51.814;4.510;2023-05-01T11:46:29;101658.25;;;12.78;100.00
11440;BME280;5776;51.814;4.510;2023-05-01T11:48:56;101653.88;;;12.82;100.00
11440;BME280;5776;51.814;4.510;2023-05-01T11:51:23;101657.09;;;12.84;100.00
11440;BME280;5776;51.814;4.510;2023-05-01T11:56:28;101666.31;;;12.93;100.00
11440;BME280;5776;51.814;4.510;2023-05-01T11:58:55;101663.56;;;12.98;100.00
11440;BME280;5776;51.814;4.510;2023-05-01T12:01:35;101668.44;;;13.01;100.00
11440;BME280;5776;51.814;4.510;2023-05-01T12:04:02;101663.25;;;13.05;100.00
11440;BME280;5776;51.814;4.510;2023-05-01T12:06:41;101662.09;;;13.11;100.00
11440;BME280;5776;51.814;4.510;2023-05-01T12:09:19;101656.91;;;13.14;100.00
11440;BME280;5776;51.814;4.510;2023-05-01T12:11:46;101655.53;;;13.17;100.00
11440;BME280;5776;51.814;4.510;2023-05-01T12:14:13;101664.19;;;13.24;100.00
11440;BME280;5776;51.814;4.510;2023-05-01T12:16:41;101661.94;;;13.31;100.00
11440;BME280;5776;51.814;4.510;2023-05-01T12:19:08;101663.56;;;13.37;100.00
11440;BME280;5776;51.814;4.510;2023-05-01T12:21:35;101662.13;;;13.45;100.00
11440;BME280;5776;51.814;4.510;2023-05-01T12:24:11;101657.94;;;13.53;100.00
11440;BME280;5776;51.814;4.510;2023-05-01T12:26:37;101655.75;;;13.55;100.00
11440;BME280;5776;51.814;4.510;2023-05-01T12:29:04;101657.63;;;13.59;100.00
11440;BME280;5776;51.814;4.510;2023-05-01T12:31:31;101655.41;;;13.61;100.00
11440;BME280;5776;51.814;4.510;2023-05-01T12:34:02;101662.72;;;13.66;100.00
11440;BME280;5776;51.814;4.510;2023-05-01T12:36:30;101659.94;;;13.71;100.00
11440;BME280;5776;51.814;4.510;2023-05-01T12:38:58;101660.47;;;13.73;100.00
11440;BME280;5776;51.814;4.510;2023-05-01T12:41:41;101663.44;;;13.77;100.00
11440;BME280;5776;51.814;4.510;2023-05-01T12:44:25;101660.47;;;13.73;100.00
11440;BME280;5776;51.814;4.510;2023-05-01T12:47:02;101665.13;;;13.73;100.00
11440;BME280;5776;51.814;4.510;2023-05-01T12:49:29;101667.84;;;13.73;100.00
11440;BME280;5776;51.814;4.510;2023-05-01T12:51:59;101663.41;;;13.82;100.00
11440;BME280;5776;51.814;4.510;2023-05-01T12:54:29;101657.94;;;13.82;100.00
11440;BME280;5776;51.814;4.510;2023-05-01T12:59:34;101665.16;;;13.92;100.00
11440;BME280;5776;51.814;4.510;2023-05-01T13:02:03;101662.44;;;13.92;100.00
11440;BME280;5776;51.814;4.510;2023-05-01T13:04:30;101661.88;;;13.95;100.00
11440;BME280;5776;51.814;4.510;2023-05-01T13:06:56;101660.50;;;13.97;100.00
11440;BME280;5776;51.814;4.510;2023-05-01T13:09:24;101666.97;;;14.01;100.00
11440;BME280;5776;51.814;4.510;2023-05-01T13:12:02;101666.41;;;14.04;100.00
11440;BME280;5776;51.814;4.510;2023-05-01T13:14:40;101653.44;;;14.15;100.00
11440;BME280;5776;51.814;4.510;2023-05-01T13:17:10;101658.91;;;14.15;100.00
11440;BME280;5776;51.814;4.510;2023-05-01T13:19:38;101655.94;;;14.12;100.00
11440;BME280;5776;51.814;4.510;2023-05-01T13:22:05;101653.44;;;14.15;100.00
11440;BME280;5776;51.814;4.510;2023-05-01T13:24:41;101651.78;;;14.14;100.00
11440;BME280;5776;51.814;4.510;2023-05-01T13:27:07;101659.19;;;14.14;100.00
11440;BME280;5776;51.814;4.510;2023-05-01T13:29:34;101655.66;;;14.13;100.00
11440;BME280;5776;51.814;4.510;2023-05-01T13:32:02;101655.38;;;14.15;100.00
11440;BME280;5776;51.814;4.510;2023-05-01T13:34:30;101656.44;;;14.14;100.00
11440;BME280;5776;51.814;4.510;2023-05-01T13:36:57;101655.06;;;14.16;100.00
11440;BME280;5776;51.814;4.510;2023-05-01T13:39:24;101655.59;;;14.18;100.00